sensor_id;sensor_type;location;lat;lon;timestamp;pressure;altitude;pressure_sealevel;temperature;humidity
46448;BME280;32145;50.390;30.778;2023-07-09T00:01:47;99898.13;;;16.48;71.23
46448;BME280;32145;50.390;30.778;2023-07-09T00:04:44;99902.50;;;16.49;71.21
46448;BME280;32145;50.390;30.778;2023-07-09T00:07:40;99905.78;;;16.52;71.23
46448;BME280;32145;50.390;30.778;2023-07-09T00:10:38;99897.31;;;16.48;71.32
46448;BME280;32145;50.390;30.778;2023-07-09T00:13:33;99893.72;;;16.47;71.65
46448;BME280;32145;50.390;30.778;2023-07-09T00:16:27;99891.00;;;16.47;71.62
46448;BME280;32145;50.390;30.778;2023-07-09T00:19:22;99883.88;;;16.46;71.46
46448;BME280;32145;50.390;30.778;2023-07-09T00:22:17;99885.53;;;16.47;71.83
46448;BME280;32145;50.390;30.778;2023-07-09T00:25:12;99880.63;;;16.49;71.69
46448;BME280;32145;50.390;30.778;2023-07-09T00:28:12;99874.88;;;16.51;71.94
46448;BME280;32145;50.390;30.778;2023-07-09T00:31:09;99879.25;;;16.52;71.77
46448;BME280;32145;50.390;30.778;2023-07-09T00:34:05;99884.72;;;16.52;71.78
46448;BME280;32145;50.390;30.778;2023-07-09T00:37:02;99879.25;;;16.52;71.54
46448;BME280;32145;50.390;30.778;2023-07-09T00:39:58;99882.81;;;16.53;71.68
46448;BME280;32145;50.390;30.778;2023-07-09T00:42:55;99881.97;;;16.52;71.76
46448;BME280;32145;50.390;30.778;2023-07-09T00:46:14;99888.53;;;16.56;72.08
46448;BME280;32145;50.390;30.778;2023-07-09T00:49:12;99879.50;;;16.51;71.80
46448;BME280;32145;50.390;30.778;2023-07-09T00:52:21;99877.34;;;16.53;71.95
46448;BME280;32145;50.390;30.778;2023-07-09T00:55:21;99885.81;;;16.51;71.92
46448;BME280;32145;50.390;30.778;2023-07-09T00:58:19;99883.06;;;16.51;71.60
46448;BME280;32145;50.390;30.778;2023-07-09T01:01:18;99885.81;;;16.51;71.95
46448;BME280;32145;50.390;30.778;2023-07-09T01:04:13;99883.63;;;16.48;71.84
46448;BME280;32145;50.390;30.778;2023-07-09T01:07:08;99885.53;;;16.47;71.69
46448;BME280;32145;50.390;30.778;2023-07-09T01:10:03;99883.88;;;16.46;71.96
46448;BME280;32145;50.390;30.778;2023-07-09T01:12:57;99879.25;;;16.47;72.01
46448;BME280;32145;50.390;30.778;2023-07-09T01:15:52;99880.34;;;16.46;71.85
46448;BME280;32145;50.390;30.778;2023-07-09T01:18:48;99890.19;;;16.47;71.98
46448;BME280;32145;50.390;30.778;2023-07-09T01:21:44;99888.56;;;16.46;71.69
46448;BME280;32145;50.390;30.778;2023-07-09T01:24:54;99884.72;;;16.47;72.04
46448;BME280;32145;50.390;30.778;2023-07-09T01:27:49;99888.00;;;16.44;71.79
46448;BME280;32145;50.390;30.778;2023-07-09T01:30:44;99889.09;;;16.43;71.63
46448;BME280;32145;50.390;30.778;2023-07-09T01:33:39;99889.63;;;16.40;71.85
46448;BME280;32145;50.390;30.778;2023-07-09T01:36:33;99885.78;;;16.41;71.98
46448;BME280;32145;50.390;30.778;2023-07-09T01:39:29;99884.16;;;16.40;71.85
46448;BME280;32145;50.390;30.778;2023-07-09T01:42:25;99891.81;;;16.38;71.85
46448;BME280;32145;50.390;30.778;2023-07-09T01:45:21;99894.00;;;16.35;72.02
46448;BME280;32145;50.390;30.778;2023-07-09T01:48:18;99889.63;;;16.34;71.99
46448;BME280;32145;50.390;30.778;2023-07-09T01:51:15;99900.31;;;16.36;72.04
46448;BME280;32145;50.390;30.778;2023-07-09T01:54:09;99892.91;;;16.31;72.06
46448;BME280;32145;50.390;30.778;2023-07-09T01:57:17;99907.13;;;16.33;72.22
46448;BME280;32145;50.390;30.778;2023-07-09T02:00:14;99901.66;;;16.28;72.26
46448;BME280;32145;50.390;30.778;2023-07-09T02:03:08;99901.91;;;16.27;72.43
46448;BME280;32145;50.390;30.778;2023-07-09T02:06:03;99902.22;;;16.30;71.92
46448;BME280;32145;50.390;30.778;2023-07-09T02:08:57;99900.56;;;16.29;72.15
46448;BME280;32145;50.390;30.778;2023-07-09T02:11:51;99897.28;;;16.27;72.12
46448;BME280;32145;50.390;30.778;2023-07-09T02:14:47;99908.22;;;16.27;72.30
46448;BME280;32145;50.390;30.778;2023-07-09T02:17:44;99912.06;;;16.26;72.50
46448;BME280;32145;50.390;30.778;2023-07-09T02:20:40;99910.41;;;16.25;72.42
46448;BME280;32145;50.390;30.778;2023-07-09T02:23:37;99910.41;;;16.25;72.72
46448;BME280;32145;50.390;30.778;2023-07-09T02:26:33;99918.34;;;16.27;72.53
46448;BME280;32145;50.390;30.778;2023-07-09T02:29:30;99913.69;;;16.27;72.49
46448;BME280;32145;50.390;30.778;2023-07-09T02:32:28;99916.16;;;16.29;72.75
46448;BME280;32145;50.390;30.778;2023-07-09T02:35:24;99918.63;;;16.30;72.74
46448;BME280;32145;50.390;30.778;2023-07-09T02:38:21;99910.97;;;16.32;72.42
46448;BME280;32145;50.390;30.778;2023-07-09T02:41:17;99917.00;;;16.34;72.54
46448;BME280;32145;50.390;30.778;2023-07-09T02:44:14;99915.91;;;16.35;72.91
46448;BME280;32145;50.390;30.778;2023-07-09T02:47:11;99930.66;;;16.40;72.49
46448;BME280;32145;50.390;30.778;2023-07-09T02:50:09;99921.09;;;16.42;72.36
46448;BME280;32145;50.390;30.778;2023-07-09T02:53:05;99915.91;;;16.46;72.39
46448;BME280;32145;50.390;30.778;2023-07-09T02:56:02;99915.34;;;16.49;72.12
46448;BME280;32145;50.390;30.778;2023-07-09T02:58:58;99912.34;;;16.51;72.04
46448;BME280;32145;50.390;30.778;2023-07-09T03:01:52;99912.63;;;16.54;72.10
46448;BME280;32145;50.390;30.778;2023-07-09T03:04:47;99919.22;;;16.58;71.97
46448;BME280;32145;50.390;30.778;2023-07-09T03:07:42;99918.63;;;16.61;71.82
46448;BME280;32145;50.390;30.778;2023-07-09T03:10:37;99917.56;;;16.62;71.98
46448;BME280;32145;50.390;30.778;2023-07-09T03:13:33;99918.94;;;16.65;71.56
46448;BME280;32145;50.390;30.778;2023-07-09T03:16:31;99922.19;;;16.67;71.61
46448;BME280;32145;50.390;30.778;2023-07-09T03:19:28;99912.66;;;16.70;71.62
46448;BME280;32145;50.390;30.778;2023-07-09T03:22:22;99907.69;;;16.72;71.35
46448;BME280;32145;50.390;30.778;2023-07-09T03:25:18;99919.22;;;16.74;71.35
46448;BME280;32145;50.390;30.778;2023-07-09T03:28:14;99916.72;;;16.78;71.29
46448;BME280;32145;50.390;30.778;2023-07-09T03:31:11;99921.66;;;16.81;71.05
46448;BME280;32145;50.390;30.778;2023-07-09T03:34:07;99910.44;;;16.82;70.90
46448;BME280;32145;50.390;30.778;2023-07-09T03:37:04;99920.81;;;16.85;70.62
46448;BME280;32145;50.390;30.778;2023-07-09T03:40:00;99913.72;;;16.90;70.74
46448;BME280;32145;50.390;30.778;2023-07-09T03:42:58;99923.56;;;16.96;70.61
46448;BME280;32145;50.390;30.778;2023-07-09T03:45:54;99918.66;;;16.98;70.28
46448;BME280;32145;50.390;30.778;2023-07-09T03:48:50;99913.44;;;17.01;70.33
46448;BME280;32145;50.390;30.778;2023-07-09T03:51:47;99916.75;;;17.09;70.06
46448;BME280;32145;50.390;30.778;2023-07-09T03:54:43;99909.34;;;17.15;69.60
46448;BME280;32145;50.390;30.778;2023-07-09T03:57:40;99921.09;;;17.20;69.84
46448;BME280;32145;50.390;30.778;2023-07-09T04:00:37;99917.00;;;17.23;69.48
46448;BME280;32145;50.390;30.778;2023-07-09T04:03:34;99911.22;;;17.30;69.37
46448;BME280;32145;50.390;30.778;2023-07-09T04:06:30;99910.91;;;17.36;69.07
46448;BME280;32145;50.390;30.778;2023-07-09T04:09:24;99905.72;;;17.35;68.92
46448;BME280;32145;50.390;30.778;2023-07-09T04:12:18;99927.38;;;17.42;68.76
46448;BME280;32145;50.390;30.778;2023-07-09T04:15:15;99922.69;;;17.47;68.54
46448;BME280;32145;50.390;30.778;2023-07-09T04:18:12;99933.34;;;17.49;68.36
46448;BME280;32145;50.390;30.778;2023-07-09T04:21:09;99932.53;;;17.54;68.42
46448;BME280;32145;50.390;30.778;2023-07-09T04:24:06;99924.56;;;17.62;68.30
46448;BME280;32145;50.390;30.778;2023-07-09T04:27:02;99924.50;;;17.73;67.92
46448;BME280;32145;50.390;30.778;2023-07-09T04:29:59;99912.94;;;17.86;67.69
46448;BME280;32145;50.390;30.778;2023-07-09T04:32:55;99909.59;;;17.95;67.33
46448;BME280;32145;50.390;30.778;2023-07-09T04:35:52;99921.34;;;18.00;66.74
46448;BME280;32145;50.390;30.778;2023-07-09T04:38:49;99916.13;;;18.09;66.67
46448;BME280;32145;50.390;30.778;2023-07-09T04:41:45;99918.28;;;18.12;66.28
46448;BME280;32145;50.390;30.778;2023-07-09T04:44:41;99917.44;;;18.17;66.25
46448;BME280;32145;50.390;30.778;2023-07-09T04:47:38;99926.47;;;18.23;66.00
46448;BME280;32145;50.390;30.778;2023-07-09T04:50:35;99921.22;;;18.26;65.61
46448;BME280;32145;50.390;30.778;2023-07-09T04:53:33;99927.50;;;18.32;65.49
46448;BME280;32145;50.390;30.778;2023-07-09T04:56:29;99929.69;;;18.35;65.25
46448;BME280;32145;50.390;30.778;2023-07-09T04:59:25;99924.75;;;18.32;64.99
46448;BME280;32145;50.390;30.778;2023-07-09T05:02:22;99929.13;;;18.38;65.30
46448;BME280;32145;50.390;30.778;2023-07-09T05:05:18;99930.75;;;18.45;65.01
46448;BME280;32145;50.390;30.778;2023-07-09T05:08:14;99931.81;;;18.44;64.72
46448;BME280;32145;50.390;30.778;2023-07-09T05:11:13;99928.47;;;18.52;64.52
46448;BME280;32145;50.390;30.778;2023-07-09T05:14:09;99927.06;;;18.60;64.42
46448;BME280;32145;50.390;30.778;2023-07-09T05:17:05;99926.16;;;18.70;64.26
46448;BME280;32145;50.390;30.778;2023-07-09T05:20:02;99920.03;;;18.78;63.75
46448;BME280;32145;50.390;30.778;2023-07-09T05:22:59;99922.22;;;18.81;63.35
46448;BME280;32145;50.390;30.778;2023-07-09T05:25:56;99927.66;;;18.86;63.66
46448;BME280;32145;50.390;30.778;2023-07-09T05:28:54;99930.94;;;18.88;63.41
46448;BME280;32145;50.390;30.778;2023-07-09T05:31:50;99927.09;;;18.89;63.00
46448;BME280;32145;50.390;30.778;2023-07-09T05:34:46;99924.34;;;18.84;62.14
46448;BME280;32145;50.390;30.778;2023-07-09T05:37:43;99926.81;;;18.86;62.26
46448;BME280;32145;50.390;30.778;2023-07-09T05:40:39;99932.47;;;19.00;62.26
46448;BME280;32145;50.390;30.778;2023-07-09T05:43:35;99934.00;;;19.16;62.12
46448;BME280;32145;50.390;30.778;2023-07-09T05:46:35;99940.16;;;19.32;61.25
46448;BME280;32145;50.390;30.778;2023-07-09T05:49:32;99924.34;;;19.43;60.84
46448;BME280;32145;50.390;30.778;2023-07-09T05:52:28;99933.06;;;19.51;59.98
46448;BME280;32145;50.390;30.778;2023-07-09T05:55:24;99933.63;;;19.53;59.41
46448;BME280;32145;50.390;30.778;2023-07-09T05:58:21;99937.72;;;19.55;58.98
46448;BME280;32145;50.390;30.778;2023-07-09T06:01:17;99929.69;;;19.59;58.52
46448;BME280;32145;50.390;30.778;2023-07-09T06:04:15;99936.13;;;19.74;58.38
46448;BME280;32145;50.390;30.778;2023-07-09T06:07:11;99945.88;;;19.85;58.05
46448;BME280;32145;50.390;30.778;2023-07-09T06:10:08;99941.91;;;19.96;57.03
46448;BME280;32145;50.390;30.778;2023-07-09T06:13:05;99933.00;;;20.05;56.37
46448;BME280;32145;50.390;30.778;2023-07-09T06:16:01;99932.25;;;20.18;56.38
46448;BME280;32145;50.390;30.778;2023-07-09T06:18:56;99932.13;;;20.29;55.77
46448;BME280;32145;50.390;30.778;2023-07-09T06:21:51;99926.03;;;20.32;54.11
46448;BME280;32145;50.390;30.778;2023-07-09T06:24:48;99931.53;;;20.32;53.58
46448;BME280;32145;50.390;30.778;2023-07-09T06:27:44;99927.56;;;20.38;52.95
46448;BME280;32145;50.390;30.778;2023-07-09T06:30:40;99935.16;;;20.46;53.13
46448;BME280;32145;50.390;30.778;2023-07-09T06:33:36;99932.84;;;20.54;53.13
46448;BME280;32145;50.390;30.778;2023-07-09T06:36:33;99933.28;;;20.61;53.33
46448;BME280;32145;50.390;30.778;2023-07-09T06:39:30;99923.31;;;20.65;52.83
46448;BME280;32145;50.390;30.778;2023-07-09T06:42:27;99927.63;;;20.71;53.05
46448;BME280;32145;50.390;30.778;2023-07-09T06:45:23;99923.34;;;20.79;53.00
46448;BME280;32145;50.390;30.778;2023-07-09T06:48:19;99930.34;;;20.91;52.45
46448;BME280;32145;50.390;30.778;2023-07-09T06:51:16;99918.44;;;20.95;51.82
46448;BME280;32145;50.390;30.778;2023-07-09T06:54:12;99916.59;;;21.05;51.85
46448;BME280;32145;50.390;30.778;2023-07-09T06:57:10;99920.22;;;21.19;51.07
46448;BME280;32145;50.390;30.778;2023-07-09T07:00:07;99922.56;;;21.26;50.18
46448;BME280;32145;50.390;30.778;2023-07-09T07:03:06;99918.78;;;21.36;49.55
46448;BME280;32145;50.390;30.778;2023-07-09T07:06:03;99904.69;;;21.52;50.19
46448;BME280;32145;50.390;30.778;2023-07-09T07:08:59;99911.63;;;21.63;49.15
46448;BME280;32145;50.390;30.778;2023-07-09T07:11:56;99908.69;;;21.73;49.44
46448;BME280;32145;50.390;30.778;2023-07-09T07:14:54;99920.00;;;21.86;49.43
46448;BME280;32145;50.390;30.778;2023-07-09T07:17:48;99924.78;;;21.94;49.29
46448;BME280;32145;50.390;30.778;2023-07-09T07:20:43;99912.44;;;21.92;48.32
46448;BME280;32145;50.390;30.778;2023-07-09T07:23:37;99921.41;;;21.97;48.49
46448;BME280;32145;50.390;30.778;2023-07-09T07:26:31;99907.72;;;22.06;47.67
46448;BME280;32145;50.390;30.778;2023-07-09T07:29:26;99906.38;;;22.04;46.90
46448;BME280;32145;50.390;30.778;2023-07-09T07:32:21;99917.91;;;22.06;46.93
46448;BME280;32145;50.390;30.778;2023-07-09T07:35:06;99923.44;;;22.06;46.25
46448;BME280;32145;50.390;30.778;2023-07-09T07:38:01;99913.09;;;22.11;46.66
46448;BME280;32145;50.390;30.778;2023-07-09T07:40:57;99917.53;;;22.12;46.63
46448;BME280;32145;50.390;30.778;2023-07-09T07:43:54;99913.19;;;22.20;46.48
46448;BME280;32145;50.390;30.778;2023-07-09T07:46:50;99914.72;;;22.26;46.50
46448;BME280;32145;50.390;30.778;2023-07-09T07:49:48;99901.91;;;22.31;46.09
46448;BME280;32145;50.390;30.778;2023-07-09T07:52:44;99903.31;;;22.42;46.83
46448;BME280;32145;50.390;30.778;2023-07-09T07:55:42;99908.56;;;22.52;46.55
46448;BME280;32145;50.390;30.778;2023-07-09T07:58:36;99901.38;;;22.65;46.29
46448;BME280;32145;50.390;30.778;2023-07-09T08:01:31;99898.41;;;22.85;46.60
46448;BME280;32145;50.390;30.778;2023-07-09T08:04:27;99903.66;;;22.95;45.30
46448;BME280;32145;50.390;30.778;2023-07-09T08:07:25;99890.84;;;22.99;44.33
46448;BME280;32145;50.390;30.778;2023-07-09T08:10:19;99893.47;;;23.04;43.85
46448;BME280;32145;50.390;30.778;2023-07-09T08:13:13;99882.63;;;23.17;43.81
46448;BME280;32145;50.390;30.778;2023-07-09T08:16:08;99890.78;;;23.22;42.29
46448;BME280;32145;50.390;30.778;2023-07-09T08:19:02;99897.63;;;23.25;42.69
46448;BME280;32145;50.390;30.778;2023-07-09T08:21:57;99888.88;;;23.32;42.50
46448;BME280;32145;50.390;30.778;2023-07-09T08:24:52;99884.88;;;23.38;42.13
46448;BME280;32145;50.390;30.778;2023-07-09T08:27:48;99899.00;;;23.45;41.63
46448;BME280;32145;50.390;30.778;2023-07-09T08:30:44;99890.09;;;23.48;42.12
46448;BME280;32145;50.390;30.778;2023-07-09T08:33:41;99889.63;;;23.64;42.56
46448;BME280;32145;50.390;30.778;2023-07-09T08:36:37;99884.78;;;23.69;41.67
46448;BME280;32145;50.390;30.778;2023-07-09T08:39:34;99889.97;;;23.71;42.02
46448;BME280;32145;50.390;30.778;2023-07-09T08:42:33;99894.69;;;23.71;41.65
46448;BME280;32145;50.390;30.778;2023-07-09T08:45:36;99887.06;;;23.76;41.98
46448;BME280;32145;50.390;30.778;2023-07-09T08:48:38;99882.03;;;23.87;41.80
46448;BME280;32145;50.390;30.778;2023-07-09T08:51:37;99890.66;;;23.86;42.09
46448;BME280;32145;50.390;30.778;2023-07-09T08:54:34;99880.91;;;23.88;41.80
46448;BME280;32145;50.390;30.778;2023-07-09T08:57:34;99890.03;;;23.98;42.28
46448;BME280;32145;50.390;30.778;2023-07-09T09:00:34;99890.81;;;24.07;41.06
46448;BME280;32145;50.390;30.778;2023-07-09T09:03:34;99887.13;;;24.12;41.53
46448;BME280;32145;50.390;30.778;2023-07-09T09:06:30;99888.09;;;24.16;41.04
46448;BME280;32145;50.390;30.778;2023-07-09T09:09:28;99884.19;;;24.17;39.82
46448;BME280;32145;50.390;30.778;2023-07-09T09:12:27;99891.53;;;24.22;40.42
46448;BME280;32145;50.390;30.778;2023-07-09T09:15:24;99884.19;;;24.35;40.05
46448;BME280;32145;50.390;30.778;2023-07-09T09:18:21;99877.00;;;24.51;41.25
46448;BME280;32145;50.390;30.778;2023-07-09T09:21:21;99880.56;;;24.61;40.08
46448;BME280;32145;50.390;30.778;2023-07-09T09:24:19;99882.06;;;24.49;39.92
46448;BME280;32145;50.390;30.778;2023-07-09T09:27:15;99882.06;;;24.40;39.83
46448;BME280;32145;50.390;30.778;2023-07-09T09:30:09;99884.66;;;24.37;40.90
46448;BME280;32145;50.390;30.778;2023-07-09T09:33:08;99886.47;;;24.50;40.68
46448;BME280;32145;50.390;30.778;2023-07-09T09:36:03;99890.66;;;24.74;40.97
46448;BME280;32145;50.390;30.778;2023-07-09T09:39:01;99884.75;;;24.93;40.52
46448;BME280;32145;50.390;30.778;2023-07-09T09:41:57;99883.47;;;24.91;41.07
46448;BME280;32145;50.390;30.778;2023-07-09T09:44:54;99905.34;;;24.66;40.73
46448;BME280;32145;50.390;30.778;2023-07-09T09:47:50;99875.69;;;24.57;41.18
46448;BME280;32145;50.390;30.778;2023-07-09T09:50:47;99878.59;;;24.70;40.21
46448;BME280;32145;50.390;30.778;2023-07-09T09:53:45;99888.88;;;24.69;40.70
46448;BME280;32145;50.390;30.778;2023-07-09T09:56:41;99884.94;;;24.88;40.45
46448;BME280;32145;50.390;30.778;2023-07-09T09:59:36;99885.25;;;24.95;40.39
46448;BME280;32145;50.390;30.778;2023-07-09T10:02:30;99902.69;;;24.96;39.51
46448;BME280;32145;50.390;30.778;2023-07-09T10:05:26;99888.34;;;24.94;39.57
46448;BME280;32145;50.390;30.778;2023-07-09T10:08:25;99886.72;;;24.93;39.33
46448;BME280;32145;50.390;30.778;2023-07-09T10:11:24;99879.66;;;25.04;39.58
46448;BME280;32145;50.390;30.778;2023-07-09T10:14:23;99884.44;;;24.95;40.39
46448;BME280;32145;50.390;30.778;2023-07-09T10:17:21;99883.31;;;24.87;40.63
46448;BME280;32145;50.390;30.778;2023-07-09T10:20:18;99886.72;;;24.93;40.76
46448;BME280;32145;50.390;30.778;2023-07-09T10:23:18;99906.38;;;25.18;39.87
46448;BME280;32145;50.390;30.778;2023-07-09T10:26:19;99892.31;;;25.23;39.03
46448;BME280;32145;50.390;30.778;2023-07-09T10:32:31;99882.28;;;25.40;38.57
46448;BME280;32145;50.390;30.778;2023-07-09T10:35:29;99896.88;;;25.28;37.65
46448;BME280;32145;50.390;30.778;2023-07-09T10:38:30;99879.03;;;25.38;38.79
46448;BME280;32145;50.390;30.778;2023-07-09T10:41:29;99879.59;;;25.52;38.20
46448;BME280;32145;50.390;30.778;2023-07-09T10:44:25;99911.94;;;25.48;38.08
46448;BME280;32145;50.390;30.778;2023-07-09T10:47:27;99888.13;;;25.47;38.01
46448;BME280;32145;50.390;30.778;2023-07-09T10:50:26;99878.81;;;25.52;38.69
46448;BME280;32145;50.390;30.778;2023-07-09T10:53:25;99894.28;;;25.61;37.14
46448;BME280;32145;50.390;30.778;2023-07-09T10:56:22;99886.78;;;25.53;36.84
46448;BME280;32145;50.390;30.778;2023-07-09T10:59:20;99876.69;;;25.57;37.18
46448;BME280;32145;50.390;30.778;2023-07-09T11:02:16;99869.75;;;25.64;36.57
46448;BME280;32145;50.390;30.778;2023-07-09T11:05:12;99888.72;;;25.61;36.80
46448;BME280;32145;50.390;30.778;2023-07-09T11:08:07;99876.00;;;25.60;36.67
46448;BME280;32145;50.390;30.778;2023-07-09T11:11:05;99873.59;;;25.50;36.07
46448;BME280;32145;50.390;30.778;2023-07-09T11:14:01;99872.25;;;25.56;36.27
46448;BME280;32145;50.390;30.778;2023-07-09T11:16:57;99880.28;;;25.49;37.04
46448;BME280;32145;50.390;30.778;2023-07-09T11:19:53;99869.97;;;25.49;36.73
46448;BME280;32145;50.390;30.778;2023-07-09T11:22:51;99874.50;;;25.24;36.47
46448;BME280;32145;50.390;30.778;2023-07-09T11:25:47;99873.75;;;25.15;37.64
46448;BME280;32145;50.390;30.778;2023-07-09T11:28:45;99864.97;;;25.13;37.92
46448;BME280;32145;50.390;30.778;2023-07-09T11:31:40;99869.50;;;25.17;37.62
46448;BME280;32145;50.390;30.778;2023-07-09T11:34:43;99876.97;;;25.26;36.35
46448;BME280;32145;50.390;30.778;2023-07-09T11:37:43;99861.44;;;25.33;36.64
46448;BME280;32145;50.390;30.778;2023-07-09T11:40:45;99859.84;;;25.23;35.79
46448;BME280;32145;50.390;30.778;2023-07-09T11:43:46;99866.09;;;25.12;37.04
46448;BME280;32145;50.390;30.778;2023-07-09T11:46:47;99864.78;;;25.18;37.23
46448;BME280;32145;50.390;30.778;2023-07-09T11:49:46;99859.13;;;25.35;36.53
46448;BME280;32145;50.390;30.778;2023-07-09T11:52:43;99851.09;;;25.43;36.12
46448;BME280;32145;50.390;30.778;2023-07-09T11:55:39;99855.88;;;25.33;36.13
46448;BME280;32145;50.390;30.778;2023-07-09T11:58:34;99865.06;;;25.25;36.21
46448;BME280;32145;50.390;30.778;2023-07-09T12:01:31;99865.06;;;25.25;36.33
46448;BME280;32145;50.390;30.778;2023-07-09T12:04:27;99852.63;;;25.31;36.68
46448;BME280;32145;50.390;30.778;2023-07-09T12:07:26;99851.38;;;25.50;36.18
46448;BME280;32145;50.390;30.778;2023-07-09T12:10:21;99845.41;;;25.69;36.15
46448;BME280;32145;50.390;30.778;2023-07-09T12:13:16;99838.91;;;25.86;35.16
46448;BME280;32145;50.390;30.778;2023-07-09T12:16:18;99841.41;;;25.79;35.57
46448;BME280;32145;50.390;30.778;2023-07-09T12:19:14;99839.44;;;25.58;35.94
46448;BME280;32145;50.390;30.778;2023-07-09T12:22:13;99844.00;;;25.63;36.38
46448;BME280;32145;50.390;30.778;2023-07-09T12:25:17;99847.97;;;25.96;36.66
46448;BME280;32145;50.390;30.778;2023-07-09T12:28:14;99831.19;;;26.13;35.86
46448;BME280;32145;50.390;30.778;2023-07-09T12:31:11;99836.72;;;26.13;36.03
46448;BME280;32145;50.390;30.778;2023-07-09T12:34:10;99839.47;;;26.01;36.72
46448;BME280;32145;50.390;30.778;2023-07-09T12:37:07;99842.97;;;26.10;36.38
46448;BME280;32145;50.390;30.778;2023-07-09T12:40:11;99839.69;;;26.30;36.31
46448;BME280;32145;50.390;30.778;2023-07-09T12:43:10;99835.50;;;26.23;35.88
46448;BME280;32145;50.390;30.778;2023-07-09T12:46:07;99831.41;;;26.08;36.81
46448;BME280;32145;50.390;30.778;2023-07-09T12:49:01;99825.03;;;26.29;36.82
46448;BME280;32145;50.390;30.778;2023-07-09T12:51:55;99835.00;;;26.43;36.75
46448;BME280;32145;50.390;30.778;2023-07-09T12:54:55;99837.69;;;26.18;36.38
46448;BME280;32145;50.390;30.778;2023-07-09T12:57:49;99835.56;;;26.15;36.85
46448;BME280;32145;50.390;30.778;2023-07-09T13:00:46;99834.56;;;25.98;37.08
46448;BME280;32145;50.390;30.778;2023-07-09T13:03:41;99833.16;;;25.92;36.60
46448;BME280;32145;50.390;30.778;2023-07-09T13:06:35;99832.41;;;26.04;36.53
46448;BME280;32145;50.390;30.778;2023-07-09T13:09:33;99828.84;;;26.16;36.38
46448;BME280;32145;50.390;30.778;2023-07-09T13:12:30;99825.63;;;26.13;36.45
46448;BME280;32145;50.390;30.778;2023-07-09T13:15:27;99838.25;;;26.32;35.91
46448;BME280;32145;50.390;30.778;2023-07-09T13:18:23;99827.59;;;26.47;35.48
46448;BME280;32145;50.390;30.778;2023-07-09T13:21:18;99825.31;;;26.49;36.00
46448;BME280;32145;50.390;30.778;2023-07-09T13:24:22;99839.44;;;26.44;36.17
46448;BME280;32145;50.390;30.778;2023-07-09T13:27:16;99834.41;;;26.37;36.37
46448;BME280;32145;50.390;30.778;2023-07-09T13:30:11;99826.00;;;26.46;36.45
46448;BME280;32145;50.390;30.778;2023-07-09T13:33:07;99848.59;;;26.57;36.10
46448;BME280;32145;50.390;30.778;2023-07-09T13:36:05;99836.94;;;26.63;35.51
46448;BME280;32145;50.390;30.778;2023-07-09T13:39:01;99823.75;;;26.73;36.30
46448;BME280;32145;50.390;30.778;2023-07-09T13:41:55;99824.44;;;26.70;35.50
46448;BME280;32145;50.390;30.778;2023-07-09T13:44:51;99826.03;;;26.71;35.96
46448;BME280;32145;50.390;30.778;2023-07-09T13:47:47;99816.19;;;26.61;35.46
46448;BME280;32145;50.390;30.778;2023-07-09T13:50:41;99816.19;;;26.61;35.71
46448;BME280;32145;50.390;30.778;2023-07-09T13:53:36;99826.94;;;26.62;35.00
46448;BME280;32145;50.390;30.778;2023-07-09T13:56:33;99815.25;;;26.57;34.44
46448;BME280;32145;50.390;30.778;2023-07-09T13:59:29;99805.19;;;26.64;35.04
46448;BME280;32145;50.390;30.778;2023-07-09T14:02:26;99813.19;;;26.66;35.21
46448;BME280;32145;50.390;30.778;2023-07-09T14:05:21;99810.75;;;26.64;35.65
46448;BME280;32145;50.390;30.778;2023-07-09T14:08:15;99817.00;;;26.61;35.91
46448;BME280;32145;50.390;30.778;2023-07-09T14:11:12;99817.78;;;26.49;36.04
46448;BME280;32145;50.390;30.778;2023-07-09T14:14:16;99813.00;;;26.37;35.78
46448;BME280;32145;50.390;30.778;2023-07-09T14:17:13;99818.69;;;26.41;36.12
46448;BME280;32145;50.390;30.778;2023-07-09T14:20:11;99817.19;;;26.44;36.25
46448;BME280;32145;50.390;30.778;2023-07-09T14:23:05;99819.88;;;26.53;35.97
46448;BME280;32145;50.390;30.778;2023-07-09T14:26:01;99835.59;;;26.48;35.26
46448;BME280;32145;50.390;30.778;2023-07-09T14:28:58;99829.44;;;26.43;34.70
46448;BME280;32145;50.390;30.778;2023-07-09T14:31:54;99823.44;;;26.41;35.20
46448;BME280;32145;50.390;30.778;2023-07-09T14:34:50;99827.16;;;26.45;35.06
46448;BME280;32145;50.390;30.778;2023-07-09T14:37:47;99824.38;;;26.45;34.74
46448;BME280;32145;50.390;30.778;2023-07-09T14:40:43;99812.06;;;26.33;34.71
46448;BME280;32145;50.390;30.778;2023-07-09T14:43:39;99814.25;;;26.28;34.60
46448;BME280;32145;50.390;30.778;2023-07-09T14:46:37;99824.00;;;26.12;34.62
46448;BME280;32145;50.390;30.778;2023-07-09T14:49:33;99816.75;;;25.99;34.10
46448;BME280;32145;50.390;30.778;2023-07-09T14:52:29;99814.19;;;25.94;34.07
46448;BME280;32145;50.390;30.778;2023-07-09T14:55:25;99828.09;;;25.94;34.44
46448;BME280;32145;50.390;30.778;2023-07-09T14:58:22;99817.91;;;25.98;34.28
46448;BME280;32145;50.390;30.778;2023-07-09T15:01:19;99815.75;;;26.04;34.78
46448;BME280;32145;50.390;30.778;2023-07-09T15:04:25;99813.00;;;26.16;35.03
46448;BME280;32145;50.390;30.778;2023-07-09T15:07:22;99809.69;;;26.23;35.24
46448;BME280;32145;50.390;30.778;2023-07-09T15:10:20;99816.19;;;26.27;35.74
46448;BME280;32145;50.390;30.778;2023-07-09T15:13:19;99814.97;;;26.37;35.70
46448;BME280;32145;50.390;30.778;2023-07-09T15:16:13;99809.88;;;26.39;35.39
46448;BME280;32145;50.390;30.778;2023-07-09T15:19:07;99813.22;;;26.32;35.02
46448;BME280;32145;50.390;30.778;2023-07-09T15:22:07;99814.63;;;26.17;35.51
46448;BME280;32145;50.390;30.778;2023-07-09T15:25:09;99805.78;;;26.03;35.02
46448;BME280;32145;50.390;30.778;2023-07-09T15:28:05;99796.59;;;25.90;35.08